createdAt,value
2023-05-16T00:00:40.541Z,63.70
2023-05-16T00:03:07.519Z,63.70
2023-05-16T00:05:34.451Z,64.00
2023-05-16T00:08:01.235Z,63.90
2023-05-16T00:10:28.360Z,63.90
2023-05-16T00:12:56.413Z,64.20
2023-05-16T00:15:24.980Z,64.20
2023-05-16T00:17:52.031Z,64.40
2023-05-16T00:20:23.460Z,64.40
2023-05-16T00:22:51.046Z,64.60
2023-05-16T00:25:18.588Z,65.00
2023-05-16T00:27:45.359Z,65.10
2023-05-16T00:30:12.851Z,65.40
2023-05-16T00:32:39.853Z,65.40
2023-05-16T00:35:07.439Z,65.40
2023-05-16T00:37:34.251Z,65.60
2023-05-16T00:40:01.043Z,66.00
2023-05-16T00:42:27.941Z,65.80
2023-05-16T00:44:54.843Z,65.80
2023-05-16T00:47:21.669Z,66.10
2023-05-16T00:49:48.689Z,65.90
2023-05-16T00:52:16.411Z,65.80
2023-05-16T00:54:43.290Z,66.00
2023-05-16T00:57:10.398Z,66.10
2023-05-16T00:59:37.293Z,66.80
2023-05-16T01:02:04.302Z,66.10
2023-05-16T01:04:32.326Z,66.20
2023-05-16T01:06:59.273Z,66.00
2023-05-16T01:09:26.166Z,65.90
2023-05-16T01:12:05.667Z,65.20
2023-05-16T01:14:35.534Z,65.50
2023-05-16T01:17:26.870Z,65.50
2023-05-16T01:20:31.243Z,65.20
2023-05-16T01:23:31.973Z,65.40
2023-05-16T01:26:26.744Z,65.10
2023-05-16T01:28:54.640Z,65.00
2023-05-16T01:31:22.791Z,65.40
2023-05-16T01:33:50.653Z,65.20
2023-05-16T01:36:31.459Z,64.90
2023-05-16T01:39:19.076Z,65.00
2023-05-16T01:42:11.109Z,65.70
2023-05-16T01:44:45.916Z,65.60
2023-05-16T01:47:14.948Z,66.50
2023-05-16T01:49:50.985Z,66.90
2023-05-16T01:52:28.777Z,66.90
2023-05-16T01:54:59.340Z,67.10
2023-05-16T01:57:28.421Z,67.40
2023-05-16T01:59:55.715Z,67.40
2023-05-16T02:02:22.614Z,67.60
2023-05-16T02:04:50.568Z,68.00
2023-05-16T02:07:17.567Z,68.50
2023-05-16T02:09:44.324Z,68.50
2023-05-16T02:12:11.142Z,68.80
2023-05-16T02:14:37.958Z,68.30
2023-05-16T02:17:05.505Z,68.90
2023-05-16T02:19:32.364Z,68.80
2023-05-16T02:21:59.131Z,68.70
2023-05-16T02:24:25.986Z,68.80
2023-05-16T02:26:52.845Z,68.80
2023-05-16T02:29:19.693Z,69.00
2023-05-16T02:31:47.198Z,68.90
2023-05-16T02:34:14.020Z,69.10
2023-05-16T02:36:40.831Z,68.90
2023-05-16T02:39:09.861Z,68.90
2023-05-16T02:41:37.107Z,68.80
2023-05-16T02:44:03.967Z,69.00
2023-05-16T02:46:33.866Z,68.90
2023-05-16T02:49:00.702Z,68.70
2023-05-16T02:51:28.776Z,68.20
2023-05-16T02:54:00.048Z,68.10
2023-05-16T02:56:27.700Z,67.80
2023-05-16T02:58:55.530Z,68.40
2023-05-16T03:01:22.634Z,68.50
2023-05-16T03:03:49.687Z,68.40
2023-05-16T03:06:16.649Z,68.30
2023-05-16T03:08:43.490Z,68.40
2023-05-16T03:11:10.367Z,68.00
2023-05-16T03:13:37.215Z,68.20
2023-05-16T03:16:04.764Z,67.90
2023-05-16T03:18:31.635Z,67.60
2023-05-16T03:20:58.658Z,67.70
2023-05-16T03:23:25.466Z,67.90
2023-05-16T03:25:52.366Z,67.80
2023-05-16T03:28:19.268Z,67.80
2023-05-16T03:30:46.156Z,67.70
2023-05-16T03:33:13.284Z,68.00
2023-05-16T03:35:40.404Z,68.00
2023-05-16T03:38:07.525Z,67.90
2023-05-16T03:40:34.463Z,67.80
2023-05-16T03:43:01.272Z,67.80
2023-05-16T03:45:28.257Z,67.70
2023-05-16T03:47:55.631Z,67.70
2023-05-16T03:50:22.539Z,67.50
2023-05-16T03:52:49.372Z,67.30
2023-05-16T03:55:16.520Z,67.20
2023-05-16T03:57:43.528Z,67.10
2023-05-16T04:00:12.438Z,67.50
2023-05-16T04:02:43.999Z,67.60
2023-05-16T04:05:12.616Z,67.80
2023-05-16T04:07:40.217Z,67.70
2023-05-16T04:10:07.594Z,68.30
2023-05-16T04:12:34.389Z,67.90
2023-05-16T04:15:01.340Z,68.30
2023-05-16T04:17:28.181Z,68.30
2023-05-16T04:19:55.001Z,67.80
2023-05-16T04:22:25.463Z,68.00
2023-05-16T04:24:52.312Z,67.90
2023-05-16T04:27:19.162Z,67.90
2023-05-16T04:29:46.159Z,67.80
2023-05-16T04:32:12.964Z,68.40
2023-05-16T04:34:40.575Z,68.20
2023-05-16T04:37:08.574Z,68.10
2023-05-16T04:39:36.537Z,67.90
2023-05-16T04:42:04.525Z,67.80
2023-05-16T04:44:31.752Z,67.20
2023-05-16T04:46:58.688Z,67.30
2023-05-16T04:49:25.643Z,67.20
2023-05-16T04:51:52.476Z,66.80
2023-05-16T04:54:19.279Z,66.80
2023-05-16T04:56:46.150Z,66.70
2023-05-16T04:59:13.028Z,64.80
2023-05-16T05:01:40.107Z,65.20
2023-05-16T05:04:07.031Z,65.10
2023-05-16T05:06:33.825Z,64.60
2023-05-16T05:09:00.699Z,64.30
2023-05-16T05:11:27.610Z,64.40
2023-05-16T05:13:54.429Z,64.60
2023-05-16T05:16:21.360Z,64.90
2023-05-16T05:18:48.613Z,65.20
2023-05-16T05:21:15.679Z,65.50
2023-05-16T05:23:42.454Z,65.70
2023-05-16T05:26:09.727Z,66.10
2023-05-16T05:28:38.079Z,66.20
2023-05-16T05:31:08.334Z,64.50
2023-05-16T05:33:35.282Z,63.80
2023-05-16T05:36:04.015Z,63.40
2023-05-16T05:38:31.368Z,62.70
2023-05-16T05:40:58.481Z,62.70
2023-05-16T05:43:25.605Z,62.50
2023-05-16T05:45:52.718Z,63.10
2023-05-16T05:48:19.904Z,63.70
2023-05-16T05:50:46.882Z,64.50
2023-05-16T05:53:13.716Z,64.20
2023-05-16T05:55:42.258Z,64.30
2023-05-16T05:58:09.612Z,65.10
2023-05-16T06:00:36.525Z,65.70
2023-05-16T06:03:03.509Z,65.20
2023-05-16T06:05:30.630Z,66.00
2023-05-16T06:07:57.785Z,66.30
2023-05-16T06:10:24.636Z,66.10
2023-05-16T06:12:51.403Z,66.50
2023-05-16T06:15:18.337Z,66.50
2023-05-16T06:17:45.286Z,67.10
2023-05-16T06:20:12.444Z,67.10
2023-05-16T06:22:39.205Z,66.40
2023-05-16T06:25:06.610Z,65.70
2023-05-16T06:27:33.674Z,66.50
2023-05-16T06:30:00.612Z,66.70
2023-05-16T06:32:27.485Z,66.80
2023-05-16T06:34:54.419Z,67.20
2023-05-16T06:37:21.266Z,66.30
2023-05-16T06:39:48.490Z,65.00
2023-05-16T06:42:15.561Z,65.50
2023-05-16T06:44:42.392Z,65.60
2023-05-16T06:47:09.228Z,65.40
2023-05-16T06:49:36.083Z,65.40
2023-05-16T06:52:03.093Z,65.70
2023-05-16T06:54:32.420Z,65.00
2023-05-16T06:56:59.218Z,65.20
2023-05-16T06:59:27.507Z,64.20
2023-05-16T07:01:55.165Z,64.80
2023-05-16T07:04:22.262Z,64.70
2023-05-16T07:06:49.158Z,63.90
2023-05-16T07:09:16.075Z,64.10
2023-05-16T07:11:42.990Z,64.00
2023-05-16T07:14:09.969Z,64.40
2023-05-16T07:16:36.890Z,64.40
2023-05-16T07:19:03.827Z,65.10
2023-05-16T07:21:31.162Z,65.90
2023-05-16T07:23:58.200Z,66.70
2023-05-16T07:26:25.049Z,66.90
2023-05-16T07:28:51.886Z,66.90
2023-05-16T07:31:19.102Z,67.30
2023-05-16T07:33:47.151Z,67.90
2023-05-16T07:36:17.327Z,67.80
2023-05-16T07:38:45.179Z,67.90
2023-05-16T07:41:12.367Z,67.60
2023-05-16T07:43:39.320Z,67.80
2023-05-16T07:46:06.502Z,67.60
2023-05-16T07:48:33.463Z,67.80
2023-05-16T07:51:00.369Z,67.40
2023-05-16T07:53:27.230Z,68.20
2023-05-16T07:55:54.124Z,68.10
2023-05-16T07:58:21.685Z,68.30
2023-05-16T08:00:48.570Z,68.20
2023-05-16T08:03:15.788Z,68.50
2023-05-16T08:05:43.060Z,68.70
2023-05-16T08:08:10.015Z,69.00
2023-05-16T08:10:36.912Z,69.60
2023-05-16T08:13:04.415Z,69.80
2023-05-16T08:15:31.421Z,70.70
2023-05-16T08:17:58.987Z,71.30
2023-05-16T08:20:26.688Z,71.90
2023-05-16T08:22:54.090Z,72.80
2023-05-16T08:25:21.171Z,73.00
2023-05-16T08:27:50.117Z,73.00
2023-05-16T08:30:17.152Z,73.20
2023-05-16T08:32:44.248Z,74.50
2023-05-16T08:35:11.473Z,75.40
2023-05-16T08:37:39.020Z,76.30
2023-05-16T08:40:10.757Z,77.20
2023-05-16T08:42:38.503Z,77.70
2023-05-16T08:45:07.052Z,78.40
2023-05-16T08:47:36.786Z,78.90
2023-05-16T08:50:05.095Z,79.90
2023-05-16T08:52:33.527Z,80.10
2023-05-16T08:55:11.040Z,81.80
2023-05-16T08:57:39.303Z,82.50
2023-05-16T09:00:12.408Z,82.40
2023-05-16T09:02:44.347Z,81.50
2023-05-16T09:05:15.454Z,81.00
2023-05-16T09:07:43.402Z,81.10
2023-05-16T09:10:11.251Z,80.10
2023-05-16T09:12:40.775Z,79.70
2023-05-16T09:15:09.046Z,79.00
2023-05-16T09:17:44.678Z,78.60
2023-05-16T09:20:11.897Z,77.20
2023-05-16T09:22:39.395Z,77.60
2023-05-16T09:25:12.632Z,76.90
2023-05-16T09:27:48.624Z,76.90
2023-05-16T09:30:17.087Z,76.30
2023-05-16T09:32:45.387Z,76.20
2023-05-16T09:35:27.278Z,75.90
2023-05-16T09:37:58.051Z,76.00
2023-05-16T09:40:25.065Z,76.30
2023-05-16T09:43:06.149Z,75.60
2023-05-16T09:45:34.371Z,74.50
2023-05-16T09:48:14.924Z,74.40
2023-05-16T09:50:49.376Z,74.30
2023-05-16T09:53:16.321Z,75.10
2023-05-16T09:55:43.418Z,75.20
2023-05-16T09:58:10.498Z,75.10
2023-05-16T10:00:39.490Z,74.50
2023-05-16T10:03:06.697Z,74.40
2023-05-16T10:05:34.918Z,74.60
2023-05-16T10:08:03.542Z,74.20
2023-05-16T10:10:31.603Z,73.90
2023-05-16T10:13:01.613Z,74.00
2023-05-16T10:15:30.207Z,74.30
2023-05-16T10:18:00.113Z,72.10
2023-05-16T10:20:28.094Z,69.90
2023-05-16T10:22:58.033Z,68.00
2023-05-16T10:25:40.268Z,67.90
2023-05-16T10:28:11.447Z,67.50
2023-05-16T10:30:41.805Z,68.30
2023-05-16T10:33:09.305Z,69.00
2023-05-16T10:35:37.139Z,69.40
2023-05-16T10:38:07.470Z,69.60
2023-05-16T10:40:36.711Z,69.00
2023-05-16T10:43:05.499Z,69.50
2023-05-16T10:45:32.970Z,69.90
2023-05-16T10:48:05.071Z,70.10
2023-05-16T10:50:46.274Z,69.90
2023-05-16T10:53:29.205Z,69.70
2023-05-16T10:56:01.961Z,70.10
2023-05-16T10:58:40.813Z,70.20
2023-05-16T11:01:33.682Z,70.40
2023-05-16T11:04:10.300Z,70.10
2023-05-16T11:06:43.142Z,70.10
2023-05-16T11:09:15.762Z,70.00
2023-05-16T11:11:54.349Z,69.90
2023-05-16T11:14:24.181Z,70.20
2023-05-16T11:17:09.667Z,69.80
2023-05-16T11:19:56.333Z,69.60
2023-05-16T11:22:24.964Z,69.20
2023-05-16T11:24:57.699Z,69.20
2023-05-16T11:27:26.171Z,70.10
2023-05-16T11:29:54.895Z,70.20
2023-05-16T11:32:23.663Z,71.10
2023-05-16T11:34:52.209Z,70.10
2023-05-16T11:37:21.024Z,69.90
2023-05-16T11:39:48.008Z,69.70
2023-05-16T11:42:15.021Z,69.30
2023-05-16T11:44:44.115Z,69.10
2023-05-16T11:47:12.406Z,68.70
2023-05-16T11:49:39.311Z,69.00
2023-05-16T11:52:08.565Z,69.10
2023-05-16T11:54:35.620Z,69.60
2023-05-16T11:57:03.241Z,69.10
2023-05-16T11:59:30.227Z,69.30
2023-05-16T12:01:57.076Z,68.80
2023-05-16T12:04:24.760Z,68.60
2023-05-16T12:07:00.661Z,69.00
2023-05-16T12:09:27.557Z,69.00
2023-05-16T12:11:54.687Z,68.90
2023-05-16T12:14:22.328Z,68.90
2023-05-16T12:16:51.545Z,69.10
2023-05-16T12:19:18.724Z,69.30
2023-05-16T12:21:45.742Z,69.00
2023-05-16T12:24:15.636Z,68.80
2023-05-16T12:26:43.504Z,69.20
2023-05-16T12:29:11.540Z,69.10
2023-05-16T12:31:40.563Z,69.10
2023-05-16T12:34:23.572Z,69.00
2023-05-16T12:36:54.559Z,69.20
2023-05-16T12:39:23.017Z,68.70
2023-05-16T12:41:49.886Z,69.00
2023-05-16T12:44:19.444Z,69.50
2023-05-16T12:46:49.942Z,69.40
2023-05-16T12:49:20.996Z,69.90
2023-05-16T12:51:55.788Z,70.30
2023-05-16T12:54:23.308Z,70.30
2023-05-16T12:56:50.321Z,69.90
2023-05-16T12:59:17.413Z,70.30
2023-05-16T13:01:46.426Z,70.40
2023-05-16T13:04:18.315Z,70.60
2023-05-16T13:06:58.746Z,70.90
2023-05-16T13:09:29.983Z,71.30
2023-05-16T13:11:57.180Z,71.50
2023-05-16T13:14:24.030Z,71.70
2023-05-16T13:16:51.460Z,71.70
2023-05-16T13:19:18.521Z,71.80
2023-05-16T13:21:45.734Z,71.90
2023-05-16T13:24:12.620Z,71.70
2023-05-16T13:26:39.711Z,71.70
2023-05-16T13:29:06.611Z,71.50
2023-05-16T13:31:33.504Z,71.80
2023-05-16T13:34:00.406Z,71.90
2023-05-16T13:36:28.647Z,71.80
2023-05-16T13:38:56.936Z,72.00
2023-05-16T13:41:23.800Z,71.30
2023-05-16T13:43:50.754Z,71.00
2023-05-16T13:46:17.756Z,70.80
2023-05-16T13:48:44.636Z,70.60
2023-05-16T13:51:11.607Z,70.30
2023-05-16T13:53:39.279Z,70.40
2023-05-16T13:56:06.692Z,70.60
2023-05-16T13:58:33.530Z,70.10
2023-05-16T14:01:00.414Z,69.00
2023-05-16T14:03:27.565Z,68.10
2023-05-16T14:05:54.620Z,68.10
2023-05-16T14:08:21.451Z,67.50
2023-05-16T14:10:49.718Z,67.60
2023-05-16T14:13:16.560Z,67.10
2023-05-16T14:15:43.431Z,67.00
2023-05-16T14:18:10.505Z,67.30
2023-05-16T14:20:37.361Z,67.70
2023-05-16T14:23:04.353Z,68.10
2023-05-16T14:25:31.814Z,68.40
2023-05-16T14:27:58.627Z,68.40
2023-05-16T14:30:26.699Z,68.30
2023-05-16T14:32:53.760Z,68.30
2023-05-16T14:35:20.793Z,68.70
2023-05-16T14:37:47.997Z,69.00
2023-05-16T14:40:14.949Z,69.10
2023-05-16T14:42:41.787Z,69.40
2023-05-16T14:45:09.112Z,69.20
2023-05-16T14:47:36.369Z,69.20
2023-05-16T14:50:03.518Z,69.20
2023-05-16T14:52:30.597Z,69.50
2023-05-16T14:54:57.481Z,69.10
2023-05-16T14:57:24.349Z,69.30
2023-05-16T14:59:51.319Z,69.00
2023-05-16T15:02:18.180Z,69.40
2023-05-16T15:04:45.124Z,69.30
2023-05-16T15:07:12.038Z,69.40
2023-05-16T15:09:38.850Z,69.70
2023-05-16T15:12:06.211Z,69.60
2023-05-16T15:14:33.162Z,69.60
2023-05-16T15:17:00.023Z,69.80
2023-05-16T15:19:27.012Z,70.30
2023-05-16T15:21:53.953Z,69.30
2023-05-16T15:24:20.868Z,69.60
2023-05-16T15:26:48.389Z,69.90
2023-05-16T15:29:15.237Z,69.60
2023-05-16T15:31:42.089Z,69.30
2023-05-16T15:34:09.009Z,69.70
2023-05-16T15:36:35.874Z,69.70
2023-05-16T15:39:02.772Z,69.60
2023-05-16T15:41:56.477Z,69.90
2023-05-16T15:44:16.461Z,69.70
2023-05-16T15:46:43.384Z,69.70
2023-05-16T15:49:10.674Z,69.60
2023-05-16T15:51:37.499Z,69.70
2023-05-16T15:54:04.921Z,69.90
2023-05-16T15:56:32.667Z,69.90
2023-05-16T15:58:59.583Z,69.30
2023-05-16T16:01:26.505Z,69.30
2023-05-16T16:03:53.456Z,68.60
2023-05-16T16:06:21.302Z,68.80
2023-05-16T16:08:48.139Z,69.00
2023-05-16T16:11:14.972Z,69.00
2023-05-16T16:13:41.916Z,69.20
2023-05-16T16:16:08.889Z,69.10
2023-05-16T16:18:35.957Z,68.80
2023-05-16T16:21:02.864Z,68.80
2023-05-16T16:23:30.787Z,68.90
2023-05-16T16:25:57.577Z,69.10
2023-05-16T16:28:24.443Z,69.30
2023-05-16T16:30:51.363Z,69.10
2023-05-16T16:33:18.457Z,69.20
2023-05-16T16:35:45.428Z,69.60
2023-05-16T16:38:12.419Z,69.40
2023-05-16T16:40:39.271Z,69.40
2023-05-16T16:43:07.271Z,69.60
2023-05-16T16:45:34.082Z,69.50
2023-05-16T16:48:01.140Z,69.60
2023-05-16T16:50:28.101Z,69.80
2023-05-16T16:52:54.990Z,70.00
2023-05-16T16:55:22.172Z,70.40
2023-05-16T16:57:49.001Z,70.20
2023-05-16T17:00:16.432Z,70.40
2023-05-16T17:02:43.594Z,70.80
2023-05-16T17:05:10.790Z,71.10
2023-05-16T17:07:37.815Z,71.20
2023-05-16T17:10:05.183Z,72.00
2023-05-16T17:12:34.656Z,71.30
2023-05-16T17:15:02.060Z,71.50
2023-05-16T17:17:29.179Z,71.80
2023-05-16T17:19:56.118Z,71.70
2023-05-16T17:22:22.984Z,71.90
2023-05-16T17:24:49.884Z,72.10
2023-05-16T17:27:17.028Z,72.20
2023-05-16T17:29:43.859Z,72.00
2023-05-16T17:32:10.839Z,72.20
2023-05-16T17:34:37.648Z,72.30
2023-05-16T17:37:06.353Z,72.60
2023-05-16T17:39:34.155Z,72.60
2023-05-16T17:42:01.812Z,72.90
2023-05-16T17:44:28.768Z,73.40
2023-05-16T17:46:55.851Z,73.20
2023-05-16T17:49:22.773Z,73.80
2023-05-16T17:51:52.244Z,73.80
2023-05-16T17:54:20.339Z,74.10
2023-05-16T17:56:48.125Z,74.40
2023-05-16T17:59:15.340Z,74.30
2023-05-16T18:01:43.457Z,74.60
2023-05-16T18:04:10.763Z,74.90
2023-05-16T18:06:38.746Z,75.30
2023-05-16T18:09:07.388Z,75.40
2023-05-16T18:11:35.439Z,75.50
2023-05-16T18:14:02.312Z,75.50
2023-05-16T18:16:30.824Z,75.40
2023-05-16T18:19:00.823Z,75.60
2023-05-16T18:21:28.063Z,75.70
2023-05-16T18:23:59.072Z,75.90
2023-05-16T18:26:29.792Z,76.00
2023-05-16T18:28:56.825Z,76.00
2023-05-16T18:31:23.899Z,76.00
2023-05-16T18:33:51.014Z,76.00
2023-05-16T18:36:17.817Z,75.50
2023-05-16T18:38:44.876Z,75.50
2023-05-16T18:41:11.930Z,75.40
2023-05-16T18:43:38.778Z,75.30
2023-05-16T18:46:05.722Z,75.10
2023-05-16T18:48:35.343Z,75.00
2023-05-16T18:51:03.151Z,74.90
2023-05-16T18:53:30.062Z,75.10
2023-05-16T18:55:57.016Z,74.90
2023-05-16T18:58:23.849Z,74.60
2023-05-16T19:00:50.825Z,74.80
2023-05-16T19:03:17.875Z,74.80
2023-05-16T19:05:45.249Z,74.60
2023-05-16T19:08:12.183Z,74.70
2023-05-16T19:10:41.727Z,74.70
2023-05-16T19:13:08.953Z,74.40
2023-05-16T19:15:37.181Z,74.50
2023-05-16T19:18:05.237Z,74.40
2023-05-16T19:20:33.683Z,74.40
2023-05-16T19:23:01.473Z,74.50
2023-05-16T19:25:28.357Z,74.60
2023-05-16T19:27:55.248Z,74.80
2023-05-16T19:30:23.387Z,74.80
2023-05-16T19:32:51.664Z,75.00
2023-05-16T19:35:19.601Z,75.20
2023-05-16T19:37:46.564Z,75.20
2023-05-16T19:40:16.325Z,75.20
2023-05-16T19:42:44.159Z,75.30
2023-05-16T19:45:11.326Z,75.30
2023-05-16T19:47:38.333Z,75.40
2023-05-16T19:50:06.850Z,75.60
2023-05-16T19:52:34.008Z,75.70
2023-05-16T19:55:00.890Z,75.70
2023-05-16T19:57:27.858Z,75.80
2023-05-16T19:59:55.037Z,75.90
2023-05-16T20:02:24.322Z,76.20
2023-05-16T20:04:51.933Z,76.20
2023-05-16T20:07:18.970Z,76.10
2023-05-16T20:09:45.830Z,76.00
2023-05-16T20:12:12.878Z,75.90
2023-05-16T20:14:40.128Z,76.20
2023-05-16T20:17:07.200Z,76.20
2023-05-16T20:19:35.503Z,76.40
2023-05-16T20:22:02.554Z,76.50
2023-05-16T20:24:29.411Z,76.70
2023-05-16T20:26:56.255Z,76.80
2023-05-16T20:29:23.166Z,76.80
2023-05-16T20:31:50.065Z,76.70
2023-05-16T20:34:16.891Z,76.70
2023-05-16T20:36:43.712Z,77.00
2023-05-16T20:39:10.620Z,77.10
2023-05-16T20:41:37.622Z,77.40
2023-05-16T20:44:04.485Z,77.40
2023-05-16T20:46:31.568Z,77.20
2023-05-16T20:48:58.578Z,77.50
2023-05-16T20:51:25.553Z,77.70
2023-05-16T20:53:52.374Z,77.90
2023-05-16T20:56:19.149Z,78.10
2023-05-16T20:58:45.992Z,78.20
2023-05-16T21:01:12.813Z,78.30
2023-05-16T21:03:39.691Z,78.70
2023-05-16T21:06:06.726Z,79.00
2023-05-16T21:08:33.673Z,79.30
2023-05-16T21:11:03.403Z,79.10
2023-05-16T21:13:31.182Z,79.30
2023-05-16T21:15:57.985Z,79.90
2023-05-16T21:18:24.942Z,80.60
2023-05-16T21:20:51.785Z,79.90
2023-05-16T21:23:18.679Z,79.90
2023-05-16T21:25:45.566Z,79.70
2023-05-16T21:28:12.459Z,79.90
2023-05-16T21:30:39.334Z,80.10
2023-05-16T21:33:06.400Z,80.10
2023-05-16T21:35:33.741Z,80.10
2023-05-16T21:38:00.787Z,80.30
2023-05-16T21:40:28.811Z,80.40
2023-05-16T21:42:55.921Z,80.80
2023-05-16T21:45:22.899Z,80.60
2023-05-16T21:47:49.889Z,81.40
2023-05-16T21:50:18.264Z,81.20
2023-05-16T21:52:45.081Z,81.20
2023-05-16T21:55:11.974Z,81.10
2023-05-16T21:57:38.757Z,81.60
2023-05-16T22:00:06.843Z,81.90
2023-05-16T22:02:34.087Z,82.10
2023-05-16T22:05:01.291Z,82.00
2023-05-16T22:07:31.718Z,82.60
2023-05-16T22:09:59.335Z,83.10
2023-05-16T22:12:27.264Z,83.20
2023-05-16T22:14:54.390Z,83.40
2023-05-16T22:17:21.541Z,83.60
2023-05-16T22:19:48.532Z,83.40
2023-05-16T22:22:15.915Z,83.70
2023-05-16T22:24:42.741Z,83.80
2023-05-16T22:27:09.611Z,84.30
2023-05-16T22:29:39.491Z,84.20
2023-05-16T22:32:07.664Z,84.20
2023-05-16T22:34:35.665Z,84.20
2023-05-16T22:37:02.483Z,84.80
2023-05-16T22:39:29.322Z,85.00
2023-05-16T22:41:56.238Z,85.20
2023-05-16T22:44:23.073Z,84.90
2023-05-16T22:46:50.042Z,84.90
2023-05-16T22:49:16.915Z,84.90
2023-05-16T22:51:44.321Z,84.90
2023-05-16T22:54:11.495Z,84.70
2023-05-16T22:56:38.423Z,84.50
2023-05-16T22:59:05.249Z,84.50
2023-05-16T23:01:32.173Z,84.70
2023-05-16T23:03:59.113Z,84.70
2023-05-16T23:06:25.920Z,84.60
2023-05-16T23:08:52.803Z,84.80
2023-05-16T23:11:20.228Z,84.80
2023-05-16T23:13:47.104Z,84.70
2023-05-16T23:16:13.955Z,84.60
2023-05-16T23:18:41.180Z,85.00
2023-05-16T23:21:08.262Z,84.80
2023-05-16T23:23:35.283Z,84.80
2023-05-16T23:26:02.228Z,85.10
2023-05-16T23:28:29.106Z,85.30
2023-05-16T23:30:56.047Z,85.30
2023-05-16T23:33:22.910Z,85.40
2023-05-16T23:35:49.888Z,85.60
2023-05-16T23:38:16.724Z,85.70
2023-05-16T23:40:43.610Z,85.70
2023-05-16T23:43:10.477Z,85.70
2023-05-16T23:45:37.413Z,86.80
2023-05-16T23:48:04.878Z,86.40
2023-05-16T23:50:32.204Z,86.30
2023-05-16T23:52:59.006Z,86.30
2023-05-16T23:55:26.099Z,86.20
2023-05-16T23:57:53.156Z,86.10
